sensor_id;sensor_type;location;lat;lon;timestamp;P1;durP1;ratioP1;P2;durP2;ratioP2
49502;SDS011;35409;48.776;9.204;2024-03-07T00:00:06;56.88;;;32.80;;
49502;SDS011;35409;48.776;9.204;2024-03-07T00:02:43;61.58;;;34.67;;
49502;SDS011;35409;48.776;9.204;2024-03-07T00:05:09;55.08;;;32.83;;
49502;SDS011;35409;48.776;9.204;2024-03-07T00:07:36;65.43;;;35.15;;
49502;SDS011;35409;48.776;9.204;2024-03-07T00:10:02;62.22;;;34.78;;
49502;SDS011;35409;48.776;9.204;2024-03-07T00:12:29;58.90;;;33.67;;
49502;SDS011;35409;48.776;9.204;2024-03-07T00:14:55;54.00;;;32.33;;
49502;SDS011;35409;48.776;9.204;2024-03-07T00:17:21;55.85;;;32.08;;
49502;SDS011;35409;48.776;9.204;2024-03-07T00:19:48;62.03;;;35.30;;
49502;SDS011;35409;48.776;9.204;2024-03-07T00:22:13;55.17;;;32.13;;
49502;SDS011;35409;48.776;9.204;2024-03-07T00:24:39;58.90;;;31.80;;
49502;SDS011;35409;48.776;9.204;2024-03-07T00:27:05;57.35;;;33.17;;
49502;SDS011;35409;48.776;9.204;2024-03-07T00:29:32;57.88;;;33.70;;
49502;SDS011;35409;48.776;9.204;2024-03-07T00:32:00;56.95;;;32.70;;
49502;SDS011;35409;48.776;9.204;2024-03-07T00:34:26;49.85;;;30.67;;
49502;SDS011;35409;48.776;9.204;2024-03-07T00:36:52;57.33;;;32.28;;
49502;SDS011;35409;48.776;9.204;2024-03-07T00:39:18;57.13;;;31.42;;
49502;SDS011;35409;48.776;9.204;2024-03-07T00:41:45;55.80;;;32.45;;
49502;SDS011;35409;48.776;9.204;2024-03-07T00:44:10;54.03;;;32.08;;
49502;SDS011;35409;48.776;9.204;2024-03-07T00:46:36;56.95;;;34.00;;
49502;SDS011;35409;48.776;9.204;2024-03-07T00:49:02;56.17;;;32.35;;
49502;SDS011;35409;48.776;9.204;2024-03-07T00:51:28;56.03;;;32.63;;
49502;SDS011;35409;48.776;9.204;2024-03-07T00:53:54;56.22;;;32.45;;
49502;SDS011;35409;48.776;9.204;2024-03-07T00:56:20;61.60;;;34.78;;
49502;SDS011;35409;48.776;9.204;2024-03-07T00:58:50;59.08;;;32.97;;
49502;SDS011;35409;48.776;9.204;2024-03-07T01:01:16;52.83;;;32.88;;
49502;SDS011;35409;48.776;9.204;2024-03-07T01:03:43;59.30;;;33.70;;
49502;SDS011;35409;48.776;9.204;2024-03-07T01:06:09;61.17;;;35.55;;
49502;SDS011;35409;48.776;9.204;2024-03-07T01:08:35;58.33;;;34.33;;
49502;SDS011;35409;48.776;9.204;2024-03-07T01:11:02;58.88;;;34.25;;
49502;SDS011;35409;48.776;9.204;2024-03-07T01:13:34;58.83;;;34.38;;
49502;SDS011;35409;48.776;9.204;2024-03-07T01:16:01;68.03;;;36.33;;
49502;SDS011;35409;48.776;9.204;2024-03-07T01:18:26;58.20;;;34.35;;
49502;SDS011;35409;48.776;9.204;2024-03-07T01:20:52;64.25;;;34.90;;
49502;SDS011;35409;48.776;9.204;2024-03-07T01:23:18;61.47;;;33.03;;
49502;SDS011;35409;48.776;9.204;2024-03-07T01:25:43;62.45;;;35.38;;
49502;SDS011;35409;48.776;9.204;2024-03-07T01:28:09;58.75;;;35.70;;
49502;SDS011;35409;48.776;9.204;2024-03-07T01:30:37;57.10;;;33.47;;
49502;SDS011;35409;48.776;9.204;2024-03-07T01:33:03;65.57;;;37.78;;
49502;SDS011;35409;48.776;9.204;2024-03-07T01:35:28;62.70;;;36.22;;
49502;SDS011;35409;48.776;9.204;2024-03-07T01:37:54;65.88;;;37.53;;
49502;SDS011;35409;48.776;9.204;2024-03-07T01:40:20;61.22;;;37.70;;
49502;SDS011;35409;48.776;9.204;2024-03-07T01:42:49;65.78;;;35.58;;
49502;SDS011;35409;48.776;9.204;2024-03-07T01:45:15;56.33;;;34.10;;
49502;SDS011;35409;48.776;9.204;2024-03-07T01:47:44;62.35;;;37.50;;
49502;SDS011;35409;48.776;9.204;2024-03-07T01:50:10;66.10;;;38.63;;
49502;SDS011;35409;48.776;9.204;2024-03-07T01:52:39;65.60;;;35.85;;
49502;SDS011;35409;48.776;9.204;2024-03-07T01:55:05;61.33;;;36.88;;
49502;SDS011;35409;48.776;9.204;2024-03-07T01:57:32;61.60;;;35.70;;
49502;SDS011;35409;48.776;9.204;2024-03-07T02:00:00;65.90;;;36.40;;
49502;SDS011;35409;48.776;9.204;2024-03-07T02:02:29;72.88;;;38.85;;
49502;SDS011;35409;48.776;9.204;2024-03-07T02:04:54;63.67;;;37.13;;
49502;SDS011;35409;48.776;9.204;2024-03-07T02:07:20;62.83;;;36.67;;
49502;SDS011;35409;48.776;9.204;2024-03-07T02:09:46;69.50;;;39.72;;
49502;SDS011;35409;48.776;9.204;2024-03-07T02:12:11;60.90;;;37.65;;
49502;SDS011;35409;48.776;9.204;2024-03-07T02:14:38;70.18;;;40.50;;
49502;SDS011;35409;48.776;9.204;2024-03-07T02:17:05;66.65;;;37.90;;
49502;SDS011;35409;48.776;9.204;2024-03-07T02:19:33;67.63;;;38.22;;
49502;SDS011;35409;48.776;9.204;2024-03-07T02:21:59;69.65;;;40.58;;
49502;SDS011;35409;48.776;9.204;2024-03-07T02:24:25;70.88;;;39.03;;
49502;SDS011;35409;48.776;9.204;2024-03-07T02:26:51;71.20;;;40.58;;
49502;SDS011;35409;48.776;9.204;2024-03-07T02:29:17;72.82;;;41.03;;
49502;SDS011;35409;48.776;9.204;2024-03-07T02:31:45;72.40;;;40.63;;
49502;SDS011;35409;48.776;9.204;2024-03-07T02:34:12;72.72;;;39.42;;
49502;SDS011;35409;48.776;9.204;2024-03-07T02:36:38;76.53;;;43.03;;
49502;SDS011;35409;48.776;9.204;2024-03-07T02:39:06;75.50;;;41.92;;
49502;SDS011;35409;48.776;9.204;2024-03-07T02:41:32;84.53;;;43.95;;
49502;SDS011;35409;48.776;9.204;2024-03-07T02:43:59;76.68;;;41.42;;
49502;SDS011;35409;48.776;9.204;2024-03-07T02:46:28;79.90;;;43.80;;
49502;SDS011;35409;48.776;9.204;2024-03-07T02:48:54;80.40;;;42.42;;
49502;SDS011;35409;48.776;9.204;2024-03-07T02:51:20;98.72;;;47.92;;
49502;SDS011;35409;48.776;9.204;2024-03-07T02:53:46;85.68;;;45.63;;
49502;SDS011;35409;48.776;9.204;2024-03-07T02:56:12;96.43;;;48.65;;
49502;SDS011;35409;48.776;9.204;2024-03-07T02:58:38;89.63;;;47.17;;
49502;SDS011;35409;48.776;9.204;2024-03-07T03:01:04;90.93;;;46.25;;
49502;SDS011;35409;48.776;9.204;2024-03-07T03:03:30;93.47;;;47.40;;
49502;SDS011;35409;48.776;9.204;2024-03-07T03:05:57;78.63;;;41.45;;
49502;SDS011;35409;48.776;9.204;2024-03-07T03:08:23;83.05;;;43.38;;
49502;SDS011;35409;48.776;9.204;2024-03-07T03:10:49;87.85;;;42.88;;
49502;SDS011;35409;48.776;9.204;2024-03-07T03:13:18;96.43;;;47.50;;
49502;SDS011;35409;48.776;9.204;2024-03-07T03:15:45;97.18;;;48.15;;
49502;SDS011;35409;48.776;9.204;2024-03-07T03:18:11;102.82;;;48.13;;
49502;SDS011;35409;48.776;9.204;2024-03-07T03:20:38;95.35;;;46.97;;
49502;SDS011;35409;48.776;9.204;2024-03-07T03:23:04;96.32;;;46.63;;
49502;SDS011;35409;48.776;9.204;2024-03-07T03:25:31;96.80;;;46.75;;
49502;SDS011;35409;48.776;9.204;2024-03-07T03:28:00;99.03;;;47.42;;
49502;SDS011;35409;48.776;9.204;2024-03-07T03:30:26;105.60;;;48.65;;
49502;SDS011;35409;48.776;9.204;2024-03-07T03:32:52;97.28;;;47.00;;
49502;SDS011;35409;48.776;9.204;2024-03-07T03:35:18;105.22;;;49.47;;
49502;SDS011;35409;48.776;9.204;2024-03-07T03:37:44;102.72;;;47.60;;
49502;SDS011;35409;48.776;9.204;2024-03-07T03:40:11;110.57;;;50.65;;
49502;SDS011;35409;48.776;9.204;2024-03-07T03:42:40;99.43;;;47.40;;
49502;SDS011;35409;48.776;9.204;2024-03-07T03:45:07;107.40;;;49.73;;
49502;SDS011;35409;48.776;9.204;2024-03-07T03:47:34;114.50;;;52.08;;
49502;SDS011;35409;48.776;9.204;2024-03-07T03:50:01;115.32;;;51.42;;
49502;SDS011;35409;48.776;9.204;2024-03-07T03:52:27;125.43;;;53.75;;
49502;SDS011;35409;48.776;9.204;2024-03-07T03:54:54;120.15;;;53.28;;
49502;SDS011;35409;48.776;9.204;2024-03-07T03:57:21;127.60;;;54.63;;
49502;SDS011;35409;48.776;9.204;2024-03-07T03:59:46;123.55;;;51.88;;
49502;SDS011;35409;48.776;9.204;2024-03-07T04:02:12;118.55;;;51.90;;
49502;SDS011;35409;48.776;9.204;2024-03-07T04:04:39;127.47;;;55.33;;
49502;SDS011;35409;48.776;9.204;2024-03-07T04:07:05;130.60;;;55.53;;
49502;SDS011;35409;48.776;9.204;2024-03-07T04:09:31;121.55;;;53.55;;
49502;SDS011;35409;48.776;9.204;2024-03-07T04:11:57;137.05;;;56.40;;
49502;SDS011;35409;48.776;9.204;2024-03-07T04:14:24;125.55;;;53.72;;
49502;SDS011;35409;48.776;9.204;2024-03-07T04:16:50;124.72;;;54.25;;
49502;SDS011;35409;48.776;9.204;2024-03-07T04:19:16;124.38;;;54.45;;
49502;SDS011;35409;48.776;9.204;2024-03-07T04:21:45;123.50;;;56.72;;
49502;SDS011;35409;48.776;9.204;2024-03-07T04:24:11;132.02;;;55.60;;
49502;SDS011;35409;48.776;9.204;2024-03-07T04:26:37;121.57;;;53.42;;
49502;SDS011;35409;48.776;9.204;2024-03-07T04:29:06;128.82;;;56.30;;
49502;SDS011;35409;48.776;9.204;2024-03-07T04:31:33;142.48;;;59.08;;
49502;SDS011;35409;48.776;9.204;2024-03-07T04:33:59;124.38;;;53.70;;
49502;SDS011;35409;48.776;9.204;2024-03-07T04:36:25;127.40;;;54.78;;
49502;SDS011;35409;48.776;9.204;2024-03-07T04:38:51;139.13;;;57.67;;
49502;SDS011;35409;48.776;9.204;2024-03-07T04:41:18;133.27;;;56.80;;
49502;SDS011;35409;48.776;9.204;2024-03-07T04:43:44;131.10;;;54.03;;
49502;SDS011;35409;48.776;9.204;2024-03-07T04:46:10;137.65;;;58.20;;
49502;SDS011;35409;48.776;9.204;2024-03-07T04:48:36;134.32;;;58.08;;
49502;SDS011;35409;48.776;9.204;2024-03-07T04:51:02;138.02;;;58.30;;
49502;SDS011;35409;48.776;9.204;2024-03-07T04:53:28;138.55;;;58.80;;
49502;SDS011;35409;48.776;9.204;2024-03-07T04:55:55;134.27;;;58.08;;
49502;SDS011;35409;48.776;9.204;2024-03-07T04:58:21;121.45;;;54.08;;
49502;SDS011;35409;48.776;9.204;2024-03-07T05:00:47;125.95;;;53.13;;
49502;SDS011;35409;48.776;9.204;2024-03-07T05:03:13;123.45;;;54.28;;
49502;SDS011;35409;48.776;9.204;2024-03-07T05:05:39;134.45;;;56.88;;
49502;SDS011;35409;48.776;9.204;2024-03-07T05:08:06;121.32;;;55.50;;
49502;SDS011;35409;48.776;9.204;2024-03-07T05:10:32;125.22;;;55.45;;
49502;SDS011;35409;48.776;9.204;2024-03-07T05:13:00;132.25;;;57.50;;
49502;SDS011;35409;48.776;9.204;2024-03-07T05:15:26;128.75;;;55.47;;
49502;SDS011;35409;48.776;9.204;2024-03-07T05:17:52;113.20;;;51.72;;
49502;SDS011;35409;48.776;9.204;2024-03-07T05:20:21;126.70;;;53.70;;
49502;SDS011;35409;48.776;9.204;2024-03-07T05:22:47;130.57;;;56.05;;
49502;SDS011;35409;48.776;9.204;2024-03-07T05:25:15;119.50;;;51.38;;
49502;SDS011;35409;48.776;9.204;2024-03-07T05:27:41;124.07;;;51.53;;
49502;SDS011;35409;48.776;9.204;2024-03-07T05:30:07;118.30;;;52.70;;
49502;SDS011;35409;48.776;9.204;2024-03-07T05:32:36;130.95;;;56.20;;
49502;SDS011;35409;48.776;9.204;2024-03-07T05:35:02;122.10;;;49.45;;
49502;SDS011;35409;48.776;9.204;2024-03-07T05:37:28;128.07;;;51.78;;
49502;SDS011;35409;48.776;9.204;2024-03-07T05:39:54;134.32;;;53.00;;
49502;SDS011;35409;48.776;9.204;2024-03-07T05:42:20;142.68;;;56.45;;
49502;SDS011;35409;48.776;9.204;2024-03-07T05:44:46;137.23;;;53.70;;
49502;SDS011;35409;48.776;9.204;2024-03-07T05:47:12;155.60;;;57.22;;
49502;SDS011;35409;48.776;9.204;2024-03-07T05:49:38;138.50;;;54.90;;
49502;SDS011;35409;48.776;9.204;2024-03-07T05:52:04;151.63;;;57.67;;
49502;SDS011;35409;48.776;9.204;2024-03-07T05:54:33;140.38;;;53.47;;
49502;SDS011;35409;48.776;9.204;2024-03-07T05:56:58;138.63;;;56.13;;
49502;SDS011;35409;48.776;9.204;2024-03-07T05:59:25;135.98;;;53.58;;
49502;SDS011;35409;48.776;9.204;2024-03-07T06:01:51;152.38;;;56.03;;
49502;SDS011;35409;48.776;9.204;2024-03-07T06:04:17;140.02;;;55.30;;
49502;SDS011;35409;48.776;9.204;2024-03-07T06:06:42;145.20;;;55.10;;
49502;SDS011;35409;48.776;9.204;2024-03-07T06:09:10;148.63;;;57.17;;
49502;SDS011;35409;48.776;9.204;2024-03-07T06:11:39;150.77;;;57.65;;
49502;SDS011;35409;48.776;9.204;2024-03-07T06:14:07;152.98;;;58.03;;
49502;SDS011;35409;48.776;9.204;2024-03-07T06:16:37;148.20;;;56.38;;
49502;SDS011;35409;48.776;9.204;2024-03-07T06:19:03;157.10;;;57.47;;
49502;SDS011;35409;48.776;9.204;2024-03-07T06:21:32;157.00;;;58.97;;
49502;SDS011;35409;48.776;9.204;2024-03-07T06:23:58;165.52;;;59.33;;
49502;SDS011;35409;48.776;9.204;2024-03-07T06:26:28;165.45;;;60.72;;
49502;SDS011;35409;48.776;9.204;2024-03-07T06:29:21;166.25;;;61.33;;
49502;SDS011;35409;48.776;9.204;2024-03-07T06:31:47;203.80;;;66.40;;
49502;SDS011;35409;48.776;9.204;2024-03-07T06:34:13;182.13;;;65.63;;
49502;SDS011;35409;48.776;9.204;2024-03-07T06:36:39;180.20;;;64.55;;
49502;SDS011;35409;48.776;9.204;2024-03-07T06:39:08;174.05;;;60.70;;
49502;SDS011;35409;48.776;9.204;2024-03-07T06:41:35;179.05;;;62.10;;
49502;SDS011;35409;48.776;9.204;2024-03-07T06:44:01;172.88;;;62.42;;
49502;SDS011;35409;48.776;9.204;2024-03-07T06:46:28;164.10;;;62.65;;
49502;SDS011;35409;48.776;9.204;2024-03-07T06:48:54;164.45;;;61.55;;
49502;SDS011;35409;48.776;9.204;2024-03-07T06:51:23;161.00;;;59.08;;
49502;SDS011;35409;48.776;9.204;2024-03-07T06:53:52;156.83;;;60.07;;
49502;SDS011;35409;48.776;9.204;2024-03-07T06:56:19;146.20;;;56.63;;
49502;SDS011;35409;48.776;9.204;2024-03-07T06:58:47;152.63;;;61.67;;
49502;SDS011;35409;48.776;9.204;2024-03-07T07:01:14;121.38;;;55.10;;
49502;SDS011;35409;48.776;9.204;2024-03-07T07:03:44;109.47;;;51.30;;
49502;SDS011;35409;48.776;9.204;2024-03-07T07:06:12;101.03;;;50.55;;
49502;SDS011;35409;48.776;9.204;2024-03-07T07:08:38;108.88;;;51.58;;
49502;SDS011;35409;48.776;9.204;2024-03-07T07:11:04;98.53;;;50.08;;
49502;SDS011;35409;48.776;9.204;2024-03-07T07:13:30;97.20;;;48.35;;
49502;SDS011;35409;48.776;9.204;2024-03-07T07:15:56;97.15;;;48.10;;
49502;SDS011;35409;48.776;9.204;2024-03-07T07:18:22;93.88;;;47.08;;
49502;SDS011;35409;48.776;9.204;2024-03-07T07:20:49;105.03;;;50.58;;
49502;SDS011;35409;48.776;9.204;2024-03-07T07:23:17;102.95;;;49.47;;
49502;SDS011;35409;48.776;9.204;2024-03-07T07:25:43;109.45;;;51.50;;
49502;SDS011;35409;48.776;9.204;2024-03-07T07:28:09;108.28;;;50.42;;
49502;SDS011;35409;48.776;9.204;2024-03-07T07:30:36;103.38;;;51.55;;
49502;SDS011;35409;48.776;9.204;2024-03-07T07:33:02;98.22;;;48.70;;
49502;SDS011;35409;48.776;9.204;2024-03-07T07:35:28;90.25;;;45.53;;
49502;SDS011;35409;48.776;9.204;2024-03-07T07:37:54;81.85;;;43.60;;
49502;SDS011;35409;48.776;9.204;2024-03-07T07:40:21;77.72;;;42.58;;
49502;SDS011;35409;48.776;9.204;2024-03-07T07:42:51;73.93;;;41.40;;
49502;SDS011;35409;48.776;9.204;2024-03-07T07:45:18;73.63;;;40.20;;
49502;SDS011;35409;48.776;9.204;2024-03-07T07:47:47;67.22;;;38.92;;
49502;SDS011;35409;48.776;9.204;2024-03-07T07:50:20;68.88;;;39.58;;
49502;SDS011;35409;48.776;9.204;2024-03-07T07:52:47;65.93;;;37.90;;
49502;SDS011;35409;48.776;9.204;2024-03-07T07:55:15;65.65;;;38.10;;
49502;SDS011;35409;48.776;9.204;2024-03-07T07:57:44;63.10;;;34.58;;
49502;SDS011;35409;48.776;9.204;2024-03-07T08:00:13;62.30;;;36.03;;
49502;SDS011;35409;48.776;9.204;2024-03-07T08:02:50;64.75;;;34.78;;
49502;SDS011;35409;48.776;9.204;2024-03-07T08:05:27;66.10;;;35.67;;
49502;SDS011;35409;48.776;9.204;2024-03-07T08:07:57;57.45;;;32.33;;
49502;SDS011;35409;48.776;9.204;2024-03-07T08:10:25;53.97;;;31.27;;
49502;SDS011;35409;48.776;9.204;2024-03-07T08:12:53;55.92;;;31.20;;
49502;SDS011;35409;48.776;9.204;2024-03-07T08:15:20;54.65;;;30.52;;
49502;SDS011;35409;48.776;9.204;2024-03-07T08:17:47;49.08;;;29.48;;
49502;SDS011;35409;48.776;9.204;2024-03-07T08:20:14;49.92;;;30.25;;
49502;SDS011;35409;48.776;9.204;2024-03-07T08:22:47;49.15;;;28.98;;
49502;SDS011;35409;48.776;9.204;2024-03-07T08:25:16;47.22;;;27.50;;
49502;SDS011;35409;48.776;9.204;2024-03-07T08:27:44;50.00;;;27.83;;
49502;SDS011;35409;48.776;9.204;2024-03-07T08:30:12;47.85;;;27.73;;
49502;SDS011;35409;48.776;9.204;2024-03-07T08:32:43;50.72;;;27.38;;
49502;SDS011;35409;48.776;9.204;2024-03-07T08:35:10;46.55;;;27.35;;
49502;SDS011;35409;48.776;9.204;2024-03-07T08:37:36;47.30;;;27.67;;
49502;SDS011;35409;48.776;9.204;2024-03-07T08:40:03;48.92;;;27.70;;
49502;SDS011;35409;48.776;9.204;2024-03-07T08:42:32;43.72;;;26.23;;
49502;SDS011;35409;48.776;9.204;2024-03-07T08:44:59;44.83;;;27.02;;
49502;SDS011;35409;48.776;9.204;2024-03-07T08:47:25;47.47;;;28.02;;
49502;SDS011;35409;48.776;9.204;2024-03-07T08:49:51;42.03;;;25.90;;
49502;SDS011;35409;48.776;9.204;2024-03-07T08:52:17;51.05;;;28.33;;
49502;SDS011;35409;48.776;9.204;2024-03-07T08:54:43;40.90;;;24.77;;
49502;SDS011;35409;48.776;9.204;2024-03-07T08:57:09;44.50;;;26.98;;
49502;SDS011;35409;48.776;9.204;2024-03-07T08:59:35;49.03;;;29.13;;
49502;SDS011;35409;48.776;9.204;2024-03-07T09:02:01;50.83;;;28.45;;
49502;SDS011;35409;48.776;9.204;2024-03-07T09:04:27;45.30;;;28.10;;
49502;SDS011;35409;48.776;9.204;2024-03-07T09:06:54;44.25;;;27.02;;
49502;SDS011;35409;48.776;9.204;2024-03-07T09:09:20;44.65;;;27.70;;
49502;SDS011;35409;48.776;9.204;2024-03-07T09:11:46;45.53;;;29.08;;
49502;SDS011;35409;48.776;9.204;2024-03-07T09:14:12;43.33;;;26.65;;
49502;SDS011;35409;48.776;9.204;2024-03-07T09:16:37;43.25;;;27.50;;
49502;SDS011;35409;48.776;9.204;2024-03-07T09:19:03;45.03;;;27.10;;
49502;SDS011;35409;48.776;9.204;2024-03-07T09:21:28;49.47;;;28.00;;
49502;SDS011;35409;48.776;9.204;2024-03-07T09:23:54;44.80;;;26.95;;
49502;SDS011;35409;48.776;9.204;2024-03-07T09:26:20;42.70;;;26.73;;
49502;SDS011;35409;48.776;9.204;2024-03-07T09:28:46;42.45;;;27.58;;
49502;SDS011;35409;48.776;9.204;2024-03-07T09:31:14;44.75;;;27.08;;
49502;SDS011;35409;48.776;9.204;2024-03-07T09:33:40;48.90;;;26.40;;
49502;SDS011;35409;48.776;9.204;2024-03-07T09:36:06;49.83;;;28.88;;
49502;SDS011;35409;48.776;9.204;2024-03-07T09:38:33;47.78;;;28.80;;
49502;SDS011;35409;48.776;9.204;2024-03-07T09:41:00;43.00;;;25.65;;
49502;SDS011;35409;48.776;9.204;2024-03-07T09:43:26;42.28;;;26.77;;
49502;SDS011;35409;48.776;9.204;2024-03-07T09:45:53;46.92;;;27.45;;
49502;SDS011;35409;48.776;9.204;2024-03-07T09:48:20;40.95;;;26.85;;
49502;SDS011;35409;48.776;9.204;2024-03-07T09:50:47;46.88;;;27.85;;
49502;SDS011;35409;48.776;9.204;2024-03-07T09:53:15;46.97;;;28.08;;
49502;SDS011;35409;48.776;9.204;2024-03-07T09:55:42;49.35;;;28.17;;
49502;SDS011;35409;48.776;9.204;2024-03-07T09:58:09;41.03;;;26.95;;
49502;SDS011;35409;48.776;9.204;2024-03-07T10:00:38;43.67;;;27.13;;
49502;SDS011;35409;48.776;9.204;2024-03-07T10:03:05;41.75;;;26.63;;
49502;SDS011;35409;48.776;9.204;2024-03-07T10:05:31;41.00;;;25.95;;
49502;SDS011;35409;48.776;9.204;2024-03-07T10:07:58;41.42;;;27.05;;
49502;SDS011;35409;48.776;9.204;2024-03-07T10:10:24;43.10;;;26.33;;
49502;SDS011;35409;48.776;9.204;2024-03-07T10:12:51;43.30;;;26.85;;
49502;SDS011;35409;48.776;9.204;2024-03-07T10:15:22;41.20;;;26.25;;
49502;SDS011;35409;48.776;9.204;2024-03-07T10:20:19;46.90;;;27.30;;
49502;SDS011;35409;48.776;9.204;2024-03-07T10:22:47;43.90;;;27.45;;
49502;SDS011;35409;48.776;9.204;2024-03-07T10:25:16;45.20;;;27.73;;
49502;SDS011;35409;48.776;9.204;2024-03-07T10:27:45;44.25;;;26.92;;
49502;SDS011;35409;48.776;9.204;2024-03-07T10:30:13;45.03;;;28.23;;
49502;SDS011;35409;48.776;9.204;2024-03-07T10:32:45;45.83;;;28.00;;
49502;SDS011;35409;48.776;9.204;2024-03-07T10:35:11;42.60;;;26.77;;
49502;SDS011;35409;48.776;9.204;2024-03-07T10:37:39;46.40;;;27.27;;
49502;SDS011;35409;48.776;9.204;2024-03-07T10:40:05;43.80;;;27.95;;
49502;SDS011;35409;48.776;9.204;2024-03-07T10:42:40;45.95;;;28.23;;
49502;SDS011;35409;48.776;9.204;2024-03-07T10:45:10;51.92;;;30.58;;
49502;SDS011;35409;48.776;9.204;2024-03-07T10:47:37;47.63;;;28.88;;
49502;SDS011;35409;48.776;9.204;2024-03-07T10:50:16;45.75;;;29.38;;
49502;SDS011;35409;48.776;9.204;2024-03-07T10:52:48;53.53;;;28.55;;
49502;SDS011;35409;48.776;9.204;2024-03-07T10:58:06;47.72;;;28.30;;
49502;SDS011;35409;48.776;9.204;2024-03-07T11:00:37;48.25;;;28.42;;
49502;SDS011;35409;48.776;9.204;2024-03-07T11:03:10;48.03;;;28.88;;
49502;SDS011;35409;48.776;9.204;2024-03-07T11:05:36;52.25;;;30.02;;
49502;SDS011;35409;48.776;9.204;2024-03-07T11:08:03;46.25;;;29.55;;
49502;SDS011;35409;48.776;9.204;2024-03-07T11:10:36;44.33;;;27.15;;
49502;SDS011;35409;48.776;9.204;2024-03-07T11:13:03;48.45;;;28.67;;
49502;SDS011;35409;48.776;9.204;2024-03-07T11:15:29;46.65;;;28.05;;
49502;SDS011;35409;48.776;9.204;2024-03-07T11:17:56;41.63;;;28.38;;
49502;SDS011;35409;48.776;9.204;2024-03-07T11:20:25;44.58;;;27.02;;
49502;SDS011;35409;48.776;9.204;2024-03-07T11:25:21;45.70;;;27.65;;
49502;SDS011;35409;48.776;9.204;2024-03-07T11:28:00;46.38;;;28.33;;
49502;SDS011;35409;48.776;9.204;2024-03-07T11:30:27;44.27;;;27.43;;
49502;SDS011;35409;48.776;9.204;2024-03-07T11:32:53;48.08;;;28.02;;
49502;SDS011;35409;48.776;9.204;2024-03-07T11:35:20;48.55;;;28.60;;
49502;SDS011;35409;48.776;9.204;2024-03-07T11:37:57;45.22;;;26.17;;
49502;SDS011;35409;48.776;9.204;2024-03-07T11:42:50;43.40;;;27.38;;
49502;SDS011;35409;48.776;9.204;2024-03-07T11:45:21;44.42;;;27.55;;
49502;SDS011;35409;48.776;9.204;2024-03-07T11:47:56;45.22;;;28.50;;
49502;SDS011;35409;48.776;9.204;2024-03-07T11:50:25;44.60;;;27.38;;
49502;SDS011;35409;48.776;9.204;2024-03-07T11:52:54;49.53;;;28.17;;
49502;SDS011;35409;48.776;9.204;2024-03-07T11:55:21;48.88;;;27.33;;
49502;SDS011;35409;48.776;9.204;2024-03-07T11:57:47;41.03;;;25.25;;
49502;SDS011;35409;48.776;9.204;2024-03-07T12:00:15;43.83;;;25.90;;
49502;SDS011;35409;48.776;9.204;2024-03-07T12:02:42;45.08;;;27.90;;
49502;SDS011;35409;48.776;9.204;2024-03-07T12:05:08;44.42;;;27.63;;
49502;SDS011;35409;48.776;9.204;2024-03-07T12:07:35;46.88;;;28.35;;
49502;SDS011;35409;48.776;9.204;2024-03-07T12:10:02;44.70;;;27.45;;
49502;SDS011;35409;48.776;9.204;2024-03-07T12:12:29;43.30;;;26.13;;
49502;SDS011;35409;48.776;9.204;2024-03-07T12:14:55;44.28;;;27.55;;
49502;SDS011;35409;48.776;9.204;2024-03-07T12:17:21;46.53;;;28.73;;
49502;SDS011;35409;48.776;9.204;2024-03-07T12:19:48;40.50;;;25.92;;
49502;SDS011;35409;48.776;9.204;2024-03-07T12:22:20;43.67;;;28.52;;
49502;SDS011;35409;48.776;9.204;2024-03-07T12:25:04;45.17;;;27.58;;
49502;SDS011;35409;48.776;9.204;2024-03-07T12:27:33;46.45;;;29.15;;
49502;SDS011;35409;48.776;9.204;2024-03-07T12:29:59;44.20;;;30.40;;
49502;SDS011;35409;48.776;9.204;2024-03-07T12:32:46;42.72;;;28.52;;
49502;SDS011;35409;48.776;9.204;2024-03-07T12:35:13;45.38;;;29.02;;
49502;SDS011;35409;48.776;9.204;2024-03-07T12:37:39;42.50;;;27.40;;
49502;SDS011;35409;48.776;9.204;2024-03-07T12:40:16;45.88;;;28.10;;
49502;SDS011;35409;48.776;9.204;2024-03-07T12:42:45;48.42;;;28.92;;
49502;SDS011;35409;48.776;9.204;2024-03-07T12:45:12;43.78;;;29.13;;
49502;SDS011;35409;48.776;9.204;2024-03-07T12:50:08;46.08;;;29.52;;
49502;SDS011;35409;48.776;9.204;2024-03-07T12:52:35;45.08;;;28.85;;
49502;SDS011;35409;48.776;9.204;2024-03-07T12:55:01;47.42;;;28.23;;
49502;SDS011;35409;48.776;9.204;2024-03-07T12:57:27;45.30;;;29.67;;
49502;SDS011;35409;48.776;9.204;2024-03-07T12:59:53;46.08;;;29.00;;
49502;SDS011;35409;48.776;9.204;2024-03-07T13:02:20;48.97;;;29.35;;
49502;SDS011;35409;48.776;9.204;2024-03-07T13:04:51;45.88;;;29.33;;
49502;SDS011;35409;48.776;9.204;2024-03-07T13:07:16;49.90;;;29.55;;
49502;SDS011;35409;48.776;9.204;2024-03-07T13:09:42;45.65;;;29.55;;
49502;SDS011;35409;48.776;9.204;2024-03-07T13:12:09;46.28;;;29.42;;
49502;SDS011;35409;48.776;9.204;2024-03-07T13:14:35;41.88;;;27.88;;
49502;SDS011;35409;48.776;9.204;2024-03-07T13:17:01;45.13;;;30.45;;
49502;SDS011;35409;48.776;9.204;2024-03-07T13:19:31;43.25;;;28.70;;
49502;SDS011;35409;48.776;9.204;2024-03-07T13:21:57;43.53;;;29.60;;
49502;SDS011;35409;48.776;9.204;2024-03-07T13:24:23;41.53;;;27.40;;
49502;SDS011;35409;48.776;9.204;2024-03-07T13:26:49;41.90;;;28.48;;
49502;SDS011;35409;48.776;9.204;2024-03-07T13:29:15;44.20;;;28.00;;
49502;SDS011;35409;48.776;9.204;2024-03-07T13:31:42;43.63;;;28.33;;
49502;SDS011;35409;48.776;9.204;2024-03-07T13:34:09;38.55;;;27.55;;
49502;SDS011;35409;48.776;9.204;2024-03-07T13:36:42;40.47;;;26.73;;
49502;SDS011;35409;48.776;9.204;2024-03-07T13:39:08;46.28;;;28.25;;
49502;SDS011;35409;48.776;9.204;2024-03-07T13:41:39;37.78;;;26.20;;
49502;SDS011;35409;48.776;9.204;2024-03-07T13:44:07;47.10;;;27.17;;
49502;SDS011;35409;48.776;9.204;2024-03-07T13:46:33;41.47;;;27.17;;
49502;SDS011;35409;48.776;9.204;2024-03-07T13:49:00;43.47;;;27.92;;
49502;SDS011;35409;48.776;9.204;2024-03-07T13:51:40;42.50;;;27.88;;
49502;SDS011;35409;48.776;9.204;2024-03-07T13:54:16;41.90;;;26.63;;
49502;SDS011;35409;48.776;9.204;2024-03-07T14:14:39;45.90;;;29.25;;
49502;SDS011;35409;48.776;9.204;2024-03-07T14:20:25;50.63;;;32.35;;
49502;SDS011;35409;48.776;9.204;2024-03-07T14:25:48;48.45;;;30.00;;
49502;SDS011;35409;48.776;9.204;2024-03-07T14:31:06;52.58;;;30.27;;
49502;SDS011;35409;48.776;9.204;2024-03-07T14:33:48;48.63;;;30.40;;
49502;SDS011;35409;48.776;9.204;2024-03-07T14:36:23;47.65;;;29.45;;
49502;SDS011;35409;48.776;9.204;2024-03-07T14:39:06;47.05;;;29.30;;
49502;SDS011;35409;48.776;9.204;2024-03-07T14:41:49;44.22;;;29.02;;
49502;SDS011;35409;48.776;9.204;2024-03-07T14:44:17;47.10;;;29.50;;
49502;SDS011;35409;48.776;9.204;2024-03-07T14:46:43;45.50;;;30.02;;
49502;SDS011;35409;48.776;9.204;2024-03-07T14:49:12;45.22;;;29.67;;
49502;SDS011;35409;48.776;9.204;2024-03-07T14:51:40;48.78;;;29.23;;
49502;SDS011;35409;48.776;9.204;2024-03-07T14:54:06;49.42;;;29.20;;
49502;SDS011;35409;48.776;9.204;2024-03-07T14:56:32;50.83;;;28.98;;
49502;SDS011;35409;48.776;9.204;2024-03-07T14:58:59;46.55;;;30.02;;